To NAV CANADA Home Page Login to a new session Search on AWWS site Feedback and Comments Disclaimer Vers la page française équivalente Tips FAQ What's new on the site To the Forecasts and Observations / NOTAM section To "File a Flight Plan" website Publications and other links Update of the User's profile FIC Telephone Numbers My Weather Data Folder Route Weather Data Regional Weather Data Local Weather Data To the Forecasts and Observations / NOTAM section
Request Generated 08/24/2016 at 13:39:18 UTC . Weather information available at that time is displayed.

METAR/TAF

NATASHQUAN/QC    (show WxCam)

METAR CYNA 241300Z AUTO 27010KT 3/8SM FG VV002 12/12 A2991 RMK
SLP130=
METAR CYNA 241200Z AUTO 27011KT 1/4SM FG VV002 12/12 A2990 RMK
SLP127=
METAR CYNA 241100Z AUTO 26011KT 3/8SM FG VV002 12/12 A2990 RMK
SLP126=

TAF AMD CYNA 241209Z 2412/2420 27012G22KT 1/4SM FG VV002
BECMG 2412/2414 P6SM NSW FEW002
FM241400 26015G25KT P6SM FEW080
RMK FCST BASED ON AUTO OBS. NXT FCST BY 241400Z=
Your time UTC time
Weather data provided by Environment Canada and NAV CANADA